sensor_id;sensor_type;location;lat;lon;timestamp;temperature;humidity
17495;DHT22;8864;51.970;4.614;2023-12-04T00:00:48;13.80;67.40
17495;DHT22;8864;51.970;4.614;2023-12-04T00:03:16;13.80;67.90
17495;DHT22;8864;51.970;4.614;2023-12-04T00:05:43;13.80;67.50
17495;DHT22;8864;51.970;4.614;2023-12-04T00:08:10;13.80;67.60
17495;DHT22;8864;51.970;4.614;2023-12-04T00:10:37;13.70;67.50
17495;DHT22;8864;51.970;4.614;2023-12-04T00:13:04;13.80;67.60
17495;DHT22;8864;51.970;4.614;2023-12-04T00:15:31;13.80;67.60
17495;DHT22;8864;51.970;4.614;2023-12-04T00:17:58;13.80;67.60
17495;DHT22;8864;51.970;4.614;2023-12-04T00:20:26;13.80;67.60
17495;DHT22;8864;51.970;4.614;2023-12-04T00:22:53;13.70;67.60
17495;DHT22;8864;51.970;4.614;2023-12-04T00:25:20;13.80;67.60
17495;DHT22;8864;51.970;4.614;2023-12-04T00:27:47;13.70;67.60
17495;DHT22;8864;51.970;4.614;2023-12-04T00:30:14;13.80;67.60
17495;DHT22;8864;51.970;4.614;2023-12-04T00:32:41;13.80;67.70
17495;DHT22;8864;51.970;4.614;2023-12-04T00:35:08;13.80;67.70
17495;DHT22;8864;51.970;4.614;2023-12-04T00:37:36;13.80;67.70
17495;DHT22;8864;51.970;4.614;2023-12-04T00:40:05;13.70;67.60
17495;DHT22;8864;51.970;4.614;2023-12-04T00:42:32;13.70;67.60
17495;DHT22;8864;51.970;4.614;2023-12-04T00:44:59;13.70;67.60
17495;DHT22;8864;51.970;4.614;2023-12-04T00:47:26;13.70;67.60
17495;DHT22;8864;51.970;4.614;2023-12-04T00:49:53;13.90;67.70
17495;DHT22;8864;51.970;4.614;2023-12-04T00:52:20;13.80;67.70
17495;DHT22;8864;51.970;4.614;2023-12-04T00:54:48;13.80;67.70
17495;DHT22;8864;51.970;4.614;2023-12-04T00:57:15;13.80;67.70
17495;DHT22;8864;51.970;4.614;2023-12-04T00:59:42;13.70;67.60
17495;DHT22;8864;51.970;4.614;2023-12-04T01:02:09;13.70;68.30
17495;DHT22;8864;51.970;4.614;2023-12-04T01:04:36;13.70;67.60
17495;DHT22;8864;51.970;4.614;2023-12-04T01:07:06;13.80;67.70
17495;DHT22;8864;51.970;4.614;2023-12-04T01:09:34;13.80;67.70
17495;DHT22;8864;51.970;4.614;2023-12-04T01:12:04;13.80;67.70
17495;DHT22;8864;51.970;4.614;2023-12-04T01:14:31;13.80;67.70
17495;DHT22;8864;51.970;4.614;2023-12-04T01:16:58;13.80;67.70
17495;DHT22;8864;51.970;4.614;2023-12-04T01:19:25;13.70;67.60
17495;DHT22;8864;51.970;4.614;2023-12-04T01:21:52;13.70;67.60
17495;DHT22;8864;51.970;4.614;2023-12-04T01:24:19;13.80;67.70
17495;DHT22;8864;51.970;4.614;2023-12-04T01:26:47;13.80;67.70
17495;DHT22;8864;51.970;4.614;2023-12-04T01:29:15;13.80;67.70
17495;DHT22;8864;51.970;4.614;2023-12-04T01:31:42;13.70;67.70
17495;DHT22;8864;51.970;4.614;2023-12-04T01:34:08;13.80;67.70
17495;DHT22;8864;51.970;4.614;2023-12-04T01:36:39;13.80;67.70
17495;DHT22;8864;51.970;4.614;2023-12-04T01:39:06;13.70;67.70
17495;DHT22;8864;51.970;4.614;2023-12-04T01:41:33;13.80;67.70
17495;DHT22;8864;51.970;4.614;2023-12-04T01:44:00;13.70;67.70
17495;DHT22;8864;51.970;4.614;2023-12-04T01:46:28;13.70;67.70
17495;DHT22;8864;51.970;4.614;2023-12-04T01:48:56;13.70;67.70
17495;DHT22;8864;51.970;4.614;2023-12-04T01:51:23;13.80;67.70
17495;DHT22;8864;51.970;4.614;2023-12-04T01:53:53;13.70;67.70
17495;DHT22;8864;51.970;4.614;2023-12-04T01:56:20;13.70;67.60
17495;DHT22;8864;51.970;4.614;2023-12-04T01:58:47;13.70;67.60
17495;DHT22;8864;51.970;4.614;2023-12-04T02:01:14;13.70;67.60
17495;DHT22;8864;51.970;4.614;2023-12-04T02:03:43;13.80;67.60
17495;DHT22;8864;51.970;4.614;2023-12-04T02:06:11;13.70;67.60
17495;DHT22;8864;51.970;4.614;2023-12-04T02:08:40;13.80;67.60
17495;DHT22;8864;51.970;4.614;2023-12-04T02:11:07;13.70;67.50
17495;DHT22;8864;51.970;4.614;2023-12-04T02:13:35;13.70;67.50
17495;DHT22;8864;51.970;4.614;2023-12-04T02:16:04;13.70;67.40
17495;DHT22;8864;51.970;4.614;2023-12-04T02:18:33;13.70;67.40
17495;DHT22;8864;51.970;4.614;2023-12-04T02:21:02;13.70;67.40
17495;DHT22;8864;51.970;4.614;2023-12-04T02:23:29;13.70;67.70
17495;DHT22;8864;51.970;4.614;2023-12-04T02:26:00;13.70;67.30
17495;DHT22;8864;51.970;4.614;2023-12-04T02:28:31;13.70;67.30
17495;DHT22;8864;51.970;4.614;2023-12-04T02:31:00;13.70;67.30
17495;DHT22;8864;51.970;4.614;2023-12-04T02:33:29;13.70;67.40
17495;DHT22;8864;51.970;4.614;2023-12-04T02:35:57;13.70;67.30
17495;DHT22;8864;51.970;4.614;2023-12-04T02:38:25;13.70;67.30
17495;DHT22;8864;51.970;4.614;2023-12-04T02:40:53;13.70;67.30
17495;DHT22;8864;51.970;4.614;2023-12-04T02:43:21;13.70;67.30
17495;DHT22;8864;51.970;4.614;2023-12-04T02:45:48;13.70;67.20
17495;DHT22;8864;51.970;4.614;2023-12-04T02:48:15;13.70;67.20
17495;DHT22;8864;51.970;4.614;2023-12-04T02:50:41;13.70;67.20
17495;DHT22;8864;51.970;4.614;2023-12-04T02:53:08;13.70;67.20
17495;DHT22;8864;51.970;4.614;2023-12-04T02:55:35;13.70;67.10
17495;DHT22;8864;51.970;4.614;2023-12-04T02:58:02;13.70;67.20
17495;DHT22;8864;51.970;4.614;2023-12-04T03:00:30;13.70;67.20
17495;DHT22;8864;51.970;4.614;2023-12-04T03:02:57;13.70;67.10
17495;DHT22;8864;51.970;4.614;2023-12-04T03:05:24;13.70;67.10
17495;DHT22;8864;51.970;4.614;2023-12-04T03:07:51;13.70;67.10
17495;DHT22;8864;51.970;4.614;2023-12-04T03:10:18;13.70;67.10
17495;DHT22;8864;51.970;4.614;2023-12-04T03:12:45;13.70;67.10
17495;DHT22;8864;51.970;4.614;2023-12-04T03:15:11;13.70;67.10
17495;DHT22;8864;51.970;4.614;2023-12-04T03:17:40;13.70;67.10
17495;DHT22;8864;51.970;4.614;2023-12-04T03:20:08;13.70;67.10
17495;DHT22;8864;51.970;4.614;2023-12-04T03:22:36;13.70;67.10
17495;DHT22;8864;51.970;4.614;2023-12-04T03:25:04;13.70;67.10
17495;DHT22;8864;51.970;4.614;2023-12-04T03:27:31;13.70;67.00
17495;DHT22;8864;51.970;4.614;2023-12-04T03:29:58;13.70;67.00
17495;DHT22;8864;51.970;4.614;2023-12-04T03:32:25;13.70;67.00
17495;DHT22;8864;51.970;4.614;2023-12-04T03:34:53;13.70;67.00
17495;DHT22;8864;51.970;4.614;2023-12-04T03:37:20;13.70;67.00
17495;DHT22;8864;51.970;4.614;2023-12-04T03:39:47;13.70;67.00
17495;DHT22;8864;51.970;4.614;2023-12-04T03:42:13;13.70;67.00
17495;DHT22;8864;51.970;4.614;2023-12-04T03:44:40;13.70;66.90
17495;DHT22;8864;51.970;4.614;2023-12-04T03:47:07;13.70;66.90
17495;DHT22;8864;51.970;4.614;2023-12-04T03:49:34;13.70;66.90
17495;DHT22;8864;51.970;4.614;2023-12-04T03:52:03;13.70;66.80
17495;DHT22;8864;51.970;4.614;2023-12-04T03:54:29;13.70;66.90
17495;DHT22;8864;51.970;4.614;2023-12-04T03:56:56;13.70;66.80
17495;DHT22;8864;51.970;4.614;2023-12-04T03:59:23;13.70;66.80
17495;DHT22;8864;51.970;4.614;2023-12-04T04:01:50;13.70;66.80
17495;DHT22;8864;51.970;4.614;2023-12-04T04:04:17;13.70;66.80
17495;DHT22;8864;51.970;4.614;2023-12-04T04:06:44;13.70;66.80
17495;DHT22;8864;51.970;4.614;2023-12-04T04:09:12;13.70;66.80
17495;DHT22;8864;51.970;4.614;2023-12-04T04:11:39;13.70;66.80
17495;DHT22;8864;51.970;4.614;2023-12-04T04:14:06;13.70;66.80
17495;DHT22;8864;51.970;4.614;2023-12-04T04:16:33;13.70;66.80
17495;DHT22;8864;51.970;4.614;2023-12-04T04:19:00;13.70;66.80
17495;DHT22;8864;51.970;4.614;2023-12-04T04:21:27;13.70;66.80
17495;DHT22;8864;51.970;4.614;2023-12-04T04:23:52;13.70;66.80
17495;DHT22;8864;51.970;4.614;2023-12-04T04:26:21;13.70;66.80
17495;DHT22;8864;51.970;4.614;2023-12-04T04:28:48;13.70;66.90
17495;DHT22;8864;51.970;4.614;2023-12-04T04:31:15;13.70;66.90
17495;DHT22;8864;51.970;4.614;2023-12-04T04:33:42;13.70;67.00
17495;DHT22;8864;51.970;4.614;2023-12-04T04:36:10;13.70;66.90
17495;DHT22;8864;51.970;4.614;2023-12-04T04:38:36;13.70;67.00
17495;DHT22;8864;51.970;4.614;2023-12-04T04:41:05;13.70;67.00
17495;DHT22;8864;51.970;4.614;2023-12-04T04:43:34;13.70;67.00
17495;DHT22;8864;51.970;4.614;2023-12-04T04:46:00;13.70;67.00
17495;DHT22;8864;51.970;4.614;2023-12-04T04:48:27;13.70;67.00
17495;DHT22;8864;51.970;4.614;2023-12-04T04:50:54;13.70;67.00
17495;DHT22;8864;51.970;4.614;2023-12-04T04:53:21;13.70;67.00
17495;DHT22;8864;51.970;4.614;2023-12-04T04:55:48;13.70;67.00
17495;DHT22;8864;51.970;4.614;2023-12-04T04:58:15;13.80;67.10
17495;DHT22;8864;51.970;4.614;2023-12-04T05:00:43;13.70;67.00
17495;DHT22;8864;51.970;4.614;2023-12-04T05:03:10;13.70;67.10
17495;DHT22;8864;51.970;4.614;2023-12-04T05:05:37;13.80;67.10
17495;DHT22;8864;51.970;4.614;2023-12-04T05:08:04;13.70;67.10
17495;DHT22;8864;51.970;4.614;2023-12-04T05:10:31;13.70;67.10
17495;DHT22;8864;51.970;4.614;2023-12-04T05:12:58;13.80;67.10
17495;DHT22;8864;51.970;4.614;2023-12-04T05:15:25;13.80;67.10
17495;DHT22;8864;51.970;4.614;2023-12-04T05:17:54;13.70;67.10
17495;DHT22;8864;51.970;4.614;2023-12-04T05:20:20;13.80;67.20
17495;DHT22;8864;51.970;4.614;2023-12-04T05:22:47;13.80;67.10
17495;DHT22;8864;51.970;4.614;2023-12-04T05:25:15;13.80;67.10
17495;DHT22;8864;51.970;4.614;2023-12-04T05:27:43;13.80;67.10
17495;DHT22;8864;51.970;4.614;2023-12-04T05:30:11;13.80;67.10
17495;DHT22;8864;51.970;4.614;2023-12-04T05:32:38;13.80;67.10
17495;DHT22;8864;51.970;4.614;2023-12-04T05:35:07;13.80;67.10
17495;DHT22;8864;51.970;4.614;2023-12-04T05:37:34;13.80;67.10
17495;DHT22;8864;51.970;4.614;2023-12-04T05:40:01;13.80;67.10
17495;DHT22;8864;51.970;4.614;2023-12-04T05:42:29;13.80;67.10
17495;DHT22;8864;51.970;4.614;2023-12-04T05:44:56;13.80;67.20
17495;DHT22;8864;51.970;4.614;2023-12-04T05:47:23;13.80;67.20
17495;DHT22;8864;51.970;4.614;2023-12-04T05:49:50;13.80;67.20
17495;DHT22;8864;51.970;4.614;2023-12-04T05:52:18;13.80;67.20
17495;DHT22;8864;51.970;4.614;2023-12-04T05:54:45;13.80;67.20
17495;DHT22;8864;51.970;4.614;2023-12-04T05:57:12;13.80;67.20
17495;DHT22;8864;51.970;4.614;2023-12-04T05:59:39;13.80;67.20
17495;DHT22;8864;51.970;4.614;2023-12-04T06:02:06;13.80;67.20
17495;DHT22;8864;51.970;4.614;2023-12-04T06:04:33;13.80;67.20
17495;DHT22;8864;51.970;4.614;2023-12-04T06:06:59;13.80;67.20
17495;DHT22;8864;51.970;4.614;2023-12-04T06:09:28;13.80;67.20
17495;DHT22;8864;51.970;4.614;2023-12-04T06:11:55;13.80;67.20
17495;DHT22;8864;51.970;4.614;2023-12-04T06:14:22;13.80;67.30
17495;DHT22;8864;51.970;4.614;2023-12-04T06:16:48;13.80;67.30
17495;DHT22;8864;51.970;4.614;2023-12-04T06:19:15;13.80;67.30
17495;DHT22;8864;51.970;4.614;2023-12-04T06:21:42;13.80;67.30
17495;DHT22;8864;51.970;4.614;2023-12-04T06:24:10;13.80;67.30
17495;DHT22;8864;51.970;4.614;2023-12-04T06:26:41;13.80;67.30
17495;DHT22;8864;51.970;4.614;2023-12-04T06:29:09;13.80;67.30
17495;DHT22;8864;51.970;4.614;2023-12-04T06:31:37;13.80;67.30
17495;DHT22;8864;51.970;4.614;2023-12-04T06:34:04;13.90;67.40
17495;DHT22;8864;51.970;4.614;2023-12-04T06:36:38;13.80;67.40
17495;DHT22;8864;51.970;4.614;2023-12-04T06:39:09;13.80;67.40
17495;DHT22;8864;51.970;4.614;2023-12-04T06:41:37;13.80;67.60
17495;DHT22;8864;51.970;4.614;2023-12-04T06:44:06;13.80;67.60
17495;DHT22;8864;51.970;4.614;2023-12-04T06:46:37;13.80;67.70
17495;DHT22;8864;51.970;4.614;2023-12-04T06:49:05;13.80;67.70
17495;DHT22;8864;51.970;4.614;2023-12-04T06:51:32;13.80;67.90
17495;DHT22;8864;51.970;4.614;2023-12-04T06:53:59;13.80;67.90
17495;DHT22;8864;51.970;4.614;2023-12-04T06:56:26;13.80;67.90
17495;DHT22;8864;51.970;4.614;2023-12-04T06:58:53;13.90;67.90
17495;DHT22;8864;51.970;4.614;2023-12-04T07:01:21;13.90;67.90
17495;DHT22;8864;51.970;4.614;2023-12-04T07:03:48;13.80;67.70
17495;DHT22;8864;51.970;4.614;2023-12-04T07:06:15;13.80;67.70
17495;DHT22;8864;51.970;4.614;2023-12-04T07:08:42;13.80;67.60
17495;DHT22;8864;51.970;4.614;2023-12-04T07:11:09;13.90;67.70
17495;DHT22;8864;51.970;4.614;2023-12-04T07:13:36;13.90;67.60
17495;DHT22;8864;51.970;4.614;2023-12-04T07:16:03;13.80;67.60
17495;DHT22;8864;51.970;4.614;2023-12-04T07:18:32;13.80;67.40
17495;DHT22;8864;51.970;4.614;2023-12-04T07:20:59;13.80;67.40
17495;DHT22;8864;51.970;4.614;2023-12-04T07:23:25;13.80;67.40
17495;DHT22;8864;51.970;4.614;2023-12-04T07:25:52;13.80;67.30
17495;DHT22;8864;51.970;4.614;2023-12-04T07:28:19;13.80;67.30
17495;DHT22;8864;51.970;4.614;2023-12-04T07:30:46;13.80;67.30
17495;DHT22;8864;51.970;4.614;2023-12-04T07:33:13;13.80;67.30
17495;DHT22;8864;51.970;4.614;2023-12-04T07:35:41;13.80;67.20
17495;DHT22;8864;51.970;4.614;2023-12-04T07:38:08;13.80;67.10
17495;DHT22;8864;51.970;4.614;2023-12-04T07:40:35;13.80;67.10
17495;DHT22;8864;51.970;4.614;2023-12-04T07:43:02;13.90;67.10
17495;DHT22;8864;51.970;4.614;2023-12-04T07:45:29;13.80;67.00
17495;DHT22;8864;51.970;4.614;2023-12-04T07:47:56;13.90;67.10
17495;DHT22;8864;51.970;4.614;2023-12-04T07:50:23;13.80;66.90
17495;DHT22;8864;51.970;4.614;2023-12-04T07:52:53;13.80;67.00
17495;DHT22;8864;51.970;4.614;2023-12-04T07:55:20;13.80;66.90
17495;DHT22;8864;51.970;4.614;2023-12-04T07:57:47;13.80;66.90
17495;DHT22;8864;51.970;4.614;2023-12-04T08:00:14;13.80;66.90
17495;DHT22;8864;51.970;4.614;2023-12-04T08:02:43;13.80;66.80
17495;DHT22;8864;51.970;4.614;2023-12-04T08:05:11;13.80;66.80
17495;DHT22;8864;51.970;4.614;2023-12-04T08:07:39;13.80;66.90
17495;DHT22;8864;51.970;4.614;2023-12-04T08:10:08;13.80;66.80
17495;DHT22;8864;51.970;4.614;2023-12-04T08:12:35;13.90;66.90
17495;DHT22;8864;51.970;4.614;2023-12-04T08:15:03;13.80;66.80
17495;DHT22;8864;51.970;4.614;2023-12-04T08:17:30;13.80;66.80
17495;DHT22;8864;51.970;4.614;2023-12-04T08:19:57;13.80;66.70
17495;DHT22;8864;51.970;4.614;2023-12-04T08:22:24;13.80;66.70
17495;DHT22;8864;51.970;4.614;2023-12-04T08:24:51;13.80;66.60
17495;DHT22;8864;51.970;4.614;2023-12-04T08:27:20;13.90;66.60
17495;DHT22;8864;51.970;4.614;2023-12-04T08:29:46;13.80;66.60
17495;DHT22;8864;51.970;4.614;2023-12-04T08:32:13;13.80;66.50
17495;DHT22;8864;51.970;4.614;2023-12-04T08:34:40;13.90;66.60
17495;DHT22;8864;51.970;4.614;2023-12-04T08:37:07;13.90;66.50
17495;DHT22;8864;51.970;4.614;2023-12-04T08:39:34;13.90;66.50
17495;DHT22;8864;51.970;4.614;2023-12-04T08:42:01;13.90;66.50
17495;DHT22;8864;51.970;4.614;2023-12-04T08:44:29;13.90;66.50
17495;DHT22;8864;51.970;4.614;2023-12-04T08:46:56;13.90;66.50
17495;DHT22;8864;51.970;4.614;2023-12-04T08:49:23;13.90;66.40
17495;DHT22;8864;51.970;4.614;2023-12-04T08:51:51;13.90;66.30
17495;DHT22;8864;51.970;4.614;2023-12-04T08:54:19;13.90;66.30
17495;DHT22;8864;51.970;4.614;2023-12-04T08:56:46;13.90;66.30
17495;DHT22;8864;51.970;4.614;2023-12-04T08:59:13;13.90;66.30
17495;DHT22;8864;51.970;4.614;2023-12-04T09:01:41;13.90;66.20
17495;DHT22;8864;51.970;4.614;2023-12-04T09:04:08;13.90;66.20
17495;DHT22;8864;51.970;4.614;2023-12-04T09:06:35;13.90;66.20
17495;DHT22;8864;51.970;4.614;2023-12-04T09:09:02;13.90;66.20
17495;DHT22;8864;51.970;4.614;2023-12-04T09:11:29;13.90;66.20
17495;DHT22;8864;51.970;4.614;2023-12-04T09:13:56;13.90;66.10
17495;DHT22;8864;51.970;4.614;2023-12-04T09:16:23;13.90;66.00
17495;DHT22;8864;51.970;4.614;2023-12-04T09:18:51;13.90;66.00
17495;DHT22;8864;51.970;4.614;2023-12-04T09:21:19;13.90;66.00
17495;DHT22;8864;51.970;4.614;2023-12-04T09:23:46;13.80;66.00
17495;DHT22;8864;51.970;4.614;2023-12-04T09:26:15;13.90;65.90
17495;DHT22;8864;51.970;4.614;2023-12-04T09:28:42;13.90;65.90
17495;DHT22;8864;51.970;4.614;2023-12-04T09:31:09;13.90;65.90
17495;DHT22;8864;51.970;4.614;2023-12-04T09:33:36;13.90;65.90
17495;DHT22;8864;51.970;4.614;2023-12-04T09:36:06;13.90;65.90
17495;DHT22;8864;51.970;4.614;2023-12-04T09:38:34;13.90;65.80
17495;DHT22;8864;51.970;4.614;2023-12-04T09:41:02;13.90;65.90
17495;DHT22;8864;51.970;4.614;2023-12-04T09:43:31;13.90;65.90
17495;DHT22;8864;51.970;4.614;2023-12-04T09:45:59;13.90;65.70
17495;DHT22;8864;51.970;4.614;2023-12-04T09:48:27;13.90;65.70
17495;DHT22;8864;51.970;4.614;2023-12-04T09:50:55;13.90;65.70
17495;DHT22;8864;51.970;4.614;2023-12-04T09:53:25;13.90;65.70
17495;DHT22;8864;51.970;4.614;2023-12-04T09:55:53;13.90;65.70
17495;DHT22;8864;51.970;4.614;2023-12-04T09:58:26;13.90;65.60
17495;DHT22;8864;51.970;4.614;2023-12-04T10:00:54;13.90;65.70
17495;DHT22;8864;51.970;4.614;2023-12-04T10:03:21;13.90;65.70
17495;DHT22;8864;51.970;4.614;2023-12-04T10:05:48;13.90;65.70
17495;DHT22;8864;51.970;4.614;2023-12-04T10:08:15;13.90;65.60
17495;DHT22;8864;51.970;4.614;2023-12-04T10:10:44;13.90;65.60
17495;DHT22;8864;51.970;4.614;2023-12-04T10:13:12;13.90;65.60
17495;DHT22;8864;51.970;4.614;2023-12-04T10:15:46;13.90;65.60
17495;DHT22;8864;51.970;4.614;2023-12-04T10:18:24;13.90;65.40
17495;DHT22;8864;51.970;4.614;2023-12-04T10:20:52;13.90;65.40
17495;DHT22;8864;51.970;4.614;2023-12-04T10:23:20;13.90;65.40
17495;DHT22;8864;51.970;4.614;2023-12-04T10:25:50;14.00;65.40
17495;DHT22;8864;51.970;4.614;2023-12-04T10:28:18;13.90;65.30
17495;DHT22;8864;51.970;4.614;2023-12-04T10:30:45;13.90;65.30
17495;DHT22;8864;51.970;4.614;2023-12-04T10:33:13;13.90;65.30
17495;DHT22;8864;51.970;4.614;2023-12-04T10:35:40;14.00;65.30
17495;DHT22;8864;51.970;4.614;2023-12-04T10:38:08;14.00;65.30
17495;DHT22;8864;51.970;4.614;2023-12-04T10:40:36;14.00;65.30
17495;DHT22;8864;51.970;4.614;2023-12-04T10:43:14;14.00;65.30
17495;DHT22;8864;51.970;4.614;2023-12-04T10:45:43;14.00;65.30
17495;DHT22;8864;51.970;4.614;2023-12-04T10:48:11;14.00;65.30
17495;DHT22;8864;51.970;4.614;2023-12-04T10:50:40;14.00;65.30
17495;DHT22;8864;51.970;4.614;2023-12-04T10:53:08;13.90;65.10
17495;DHT22;8864;51.970;4.614;2023-12-04T10:55:36;14.00;65.20
17495;DHT22;8864;51.970;4.614;2023-12-04T10:58:05;14.00;65.10
17495;DHT22;8864;51.970;4.614;2023-12-04T11:00:35;14.00;65.10
17495;DHT22;8864;51.970;4.614;2023-12-04T11:03:05;14.00;65.10
17495;DHT22;8864;51.970;4.614;2023-12-04T11:05:37;14.00;65.80
17495;DHT22;8864;51.970;4.614;2023-12-04T11:08:06;14.00;65.00
17495;DHT22;8864;51.970;4.614;2023-12-04T11:10:33;14.00;65.00
17495;DHT22;8864;51.970;4.614;2023-12-04T11:13:07;14.00;65.00
17495;DHT22;8864;51.970;4.614;2023-12-04T11:15:39;14.00;65.10
17495;DHT22;8864;51.970;4.614;2023-12-04T11:18:07;14.00;65.10
17495;DHT22;8864;51.970;4.614;2023-12-04T11:20:41;14.00;65.10
17495;DHT22;8864;51.970;4.614;2023-12-04T11:23:10;14.00;65.10
17495;DHT22;8864;51.970;4.614;2023-12-04T11:25:38;14.00;65.00
17495;DHT22;8864;51.970;4.614;2023-12-04T11:28:05;14.00;65.00
17495;DHT22;8864;51.970;4.614;2023-12-04T11:30:34;14.00;65.10
17495;DHT22;8864;51.970;4.614;2023-12-04T11:33:04;14.00;65.00
17495;DHT22;8864;51.970;4.614;2023-12-04T11:35:33;14.00;64.90
17495;DHT22;8864;51.970;4.614;2023-12-04T11:38:00;14.00;64.80
17495;DHT22;8864;51.970;4.614;2023-12-04T11:40:27;14.00;64.70
17495;DHT22;8864;51.970;4.614;2023-12-04T11:42:54;14.00;64.60
17495;DHT22;8864;51.970;4.614;2023-12-04T11:45:21;14.00;64.60
17495;DHT22;8864;51.970;4.614;2023-12-04T11:47:49;14.00;65.30
17495;DHT22;8864;51.970;4.614;2023-12-04T11:50:18;14.00;64.50
17495;DHT22;8864;51.970;4.614;2023-12-04T11:52:46;14.00;64.50
17495;DHT22;8864;51.970;4.614;2023-12-04T11:55:16;14.00;64.30
17495;DHT22;8864;51.970;4.614;2023-12-04T11:57:44;14.00;64.20
17495;DHT22;8864;51.970;4.614;2023-12-04T12:00:18;14.00;64.20
17495;DHT22;8864;51.970;4.614;2023-12-04T12:02:48;14.00;64.10
17495;DHT22;8864;51.970;4.614;2023-12-04T12:05:16;14.00;64.00
17495;DHT22;8864;51.970;4.614;2023-12-04T12:07:44;14.00;64.00
17495;DHT22;8864;51.970;4.614;2023-12-04T12:10:11;14.00;63.90
17495;DHT22;8864;51.970;4.614;2023-12-04T12:12:40;14.00;64.10
17495;DHT22;8864;51.970;4.614;2023-12-04T12:15:09;14.00;64.00
17495;DHT22;8864;51.970;4.614;2023-12-04T12:17:37;14.00;64.00
17495;DHT22;8864;51.970;4.614;2023-12-04T12:20:06;14.00;64.10
17495;DHT22;8864;51.970;4.614;2023-12-04T12:22:33;14.00;64.00
17495;DHT22;8864;51.970;4.614;2023-12-04T12:25:04;14.00;64.10
17495;DHT22;8864;51.970;4.614;2023-12-04T12:27:32;14.00;64.20
17495;DHT22;8864;51.970;4.614;2023-12-04T12:29:59;14.00;64.20
17495;DHT22;8864;51.970;4.614;2023-12-04T12:32:26;14.00;64.20
17495;DHT22;8864;51.970;4.614;2023-12-04T12:34:53;14.00;64.20
17495;DHT22;8864;51.970;4.614;2023-12-04T12:37:21;14.00;64.20
17495;DHT22;8864;51.970;4.614;2023-12-04T12:39:48;14.00;64.30
17495;DHT22;8864;51.970;4.614;2023-12-04T12:42:23;14.00;64.40
17495;DHT22;8864;51.970;4.614;2023-12-04T12:44:50;14.00;64.60
17495;DHT22;8864;51.970;4.614;2023-12-04T12:47:17;14.00;64.60
17495;DHT22;8864;51.970;4.614;2023-12-04T12:49:44;14.00;65.50
17495;DHT22;8864;51.970;4.614;2023-12-04T12:52:11;14.00;65.10
17495;DHT22;8864;51.970;4.614;2023-12-04T12:54:39;14.00;65.10
17495;DHT22;8864;51.970;4.614;2023-12-04T12:57:07;14.00;65.20
17495;DHT22;8864;51.970;4.614;2023-12-04T12:59:38;14.00;65.30
17495;DHT22;8864;51.970;4.614;2023-12-04T13:02:05;14.10;65.40
17495;DHT22;8864;51.970;4.614;2023-12-04T13:04:36;14.00;65.30
17495;DHT22;8864;51.970;4.614;2023-12-04T13:07:04;14.00;65.40
17495;DHT22;8864;51.970;4.614;2023-12-04T13:09:32;14.00;65.30
17495;DHT22;8864;51.970;4.614;2023-12-04T13:11:59;14.00;65.30
17495;DHT22;8864;51.970;4.614;2023-12-04T13:14:26;14.00;65.40
17495;DHT22;8864;51.970;4.614;2023-12-04T13:16:54;14.00;65.40
17495;DHT22;8864;51.970;4.614;2023-12-04T13:19:21;14.10;65.60
17495;DHT22;8864;51.970;4.614;2023-12-04T13:21:49;14.00;65.70
17495;DHT22;8864;51.970;4.614;2023-12-04T13:24:16;14.00;65.80
17495;DHT22;8864;51.970;4.614;2023-12-04T13:26:43;14.10;65.90
17495;DHT22;8864;51.970;4.614;2023-12-04T13:29:10;14.10;65.90
17495;DHT22;8864;51.970;4.614;2023-12-04T13:31:37;14.10;65.90
17495;DHT22;8864;51.970;4.614;2023-12-04T13:34:05;14.10;65.90
17495;DHT22;8864;51.970;4.614;2023-12-04T13:36:32;14.00;65.80
17495;DHT22;8864;51.970;4.614;2023-12-04T13:38:59;14.00;65.80
17495;DHT22;8864;51.970;4.614;2023-12-04T13:41:27;14.10;65.90
17495;DHT22;8864;51.970;4.614;2023-12-04T13:44:11;14.10;65.80
17495;DHT22;8864;51.970;4.614;2023-12-04T13:46:40;14.00;65.70
17495;DHT22;8864;51.970;4.614;2023-12-04T13:49:09;14.00;65.90
17495;DHT22;8864;51.970;4.614;2023-12-04T13:51:36;14.00;66.10
17495;DHT22;8864;51.970;4.614;2023-12-04T13:54:05;14.00;66.00
17495;DHT22;8864;51.970;4.614;2023-12-04T13:56:46;14.00;66.00
17495;DHT22;8864;51.970;4.614;2023-12-04T13:59:19;14.10;66.10
17495;DHT22;8864;51.970;4.614;2023-12-04T14:01:47;14.00;66.00
17495;DHT22;8864;51.970;4.614;2023-12-04T14:04:18;14.00;66.00
17495;DHT22;8864;51.970;4.614;2023-12-04T14:06:45;14.00;66.00
17495;DHT22;8864;51.970;4.614;2023-12-04T14:09:12;14.00;66.00
17495;DHT22;8864;51.970;4.614;2023-12-04T14:11:43;14.00;66.00
17495;DHT22;8864;51.970;4.614;2023-12-04T14:14:11;14.10;66.00
17495;DHT22;8864;51.970;4.614;2023-12-04T14:16:38;14.00;66.70
17495;DHT22;8864;51.970;4.614;2023-12-04T14:19:06;14.10;66.00
17495;DHT22;8864;51.970;4.614;2023-12-04T14:21:34;14.10;66.00
17495;DHT22;8864;51.970;4.614;2023-12-04T14:24:01;14.00;66.00
17495;DHT22;8864;51.970;4.614;2023-12-04T14:26:28;14.00;66.00
17495;DHT22;8864;51.970;4.614;2023-12-04T14:28:55;14.10;66.10
17495;DHT22;8864;51.970;4.614;2023-12-04T14:31:23;14.10;66.10
17495;DHT22;8864;51.970;4.614;2023-12-04T14:33:51;14.10;66.10
17495;DHT22;8864;51.970;4.614;2023-12-04T14:36:18;14.00;66.00
17495;DHT22;8864;51.970;4.614;2023-12-04T14:38:46;14.10;66.20
17495;DHT22;8864;51.970;4.614;2023-12-04T14:41:13;14.10;66.20
17495;DHT22;8864;51.970;4.614;2023-12-04T14:43:40;14.10;66.20
17495;DHT22;8864;51.970;4.614;2023-12-04T14:46:08;14.00;66.10
17495;DHT22;8864;51.970;4.614;2023-12-04T14:48:37;14.00;67.00
17495;DHT22;8864;51.970;4.614;2023-12-04T14:51:05;14.00;66.20
17495;DHT22;8864;51.970;4.614;2023-12-04T14:53:32;14.00;66.20
17495;DHT22;8864;51.970;4.614;2023-12-04T14:56:11;14.00;66.20
17495;DHT22;8864;51.970;4.614;2023-12-04T14:58:55;14.00;66.20
17495;DHT22;8864;51.970;4.614;2023-12-04T15:01:45;14.00;66.20
17495;DHT22;8864;51.970;4.614;2023-12-04T15:04:29;14.10;66.30
17495;DHT22;8864;51.970;4.614;2023-12-04T15:07:13;14.10;66.40
17495;DHT22;8864;51.970;4.614;2023-12-04T15:10:03;14.00;67.10
17495;DHT22;8864;51.970;4.614;2023-12-04T15:12:54;14.00;66.40
17495;DHT22;8864;51.970;4.614;2023-12-04T15:15:44;14.00;66.40
17495;DHT22;8864;51.970;4.614;2023-12-04T15:18:36;14.00;66.60
17495;DHT22;8864;51.970;4.614;2023-12-04T15:21:08;14.00;66.60
17495;DHT22;8864;51.970;4.614;2023-12-04T15:23:35;14.00;66.60
17495;DHT22;8864;51.970;4.614;2023-12-04T15:26:01;14.00;66.60
17495;DHT22;8864;51.970;4.614;2023-12-04T15:28:29;14.00;66.60
17495;DHT22;8864;51.970;4.614;2023-12-04T15:30:55;14.00;66.70
17495;DHT22;8864;51.970;4.614;2023-12-04T15:33:23;14.00;66.60
17495;DHT22;8864;51.970;4.614;2023-12-04T15:35:51;14.00;66.60
17495;DHT22;8864;51.970;4.614;2023-12-04T15:38:18;14.00;66.60
17495;DHT22;8864;51.970;4.614;2023-12-04T15:40:46;14.00;66.70
17495;DHT22;8864;51.970;4.614;2023-12-04T15:43:13;14.00;66.80
17495;DHT22;8864;51.970;4.614;2023-12-04T15:45:41;14.00;66.70
17495;DHT22;8864;51.970;4.614;2023-12-04T15:48:08;14.00;66.70
17495;DHT22;8864;51.970;4.614;2023-12-04T15:50:35;14.00;66.80